createdAt,value
2023-10-15T00:00:51.453Z,6.78
2023-10-15T00:03:53.519Z,7.07
2023-10-15T00:06:55.595Z,4.57
2023-10-15T00:09:57.608Z,5.90
2023-10-15T00:13:00.676Z,5.93
2023-10-15T00:16:03.141Z,3.75
2023-10-15T00:19:11.862Z,3.80
2023-10-15T00:22:15.016Z,4.80
2023-10-15T00:25:19.444Z,4.75
2023-10-15T00:28:21.821Z,3.95
2023-10-15T00:31:59.142Z,8.38
2023-10-15T00:34:51.929Z,3.17
2023-10-15T00:37:57.821Z,3.92
2023-10-15T00:50:20.741Z,3.67
2023-10-15T00:54:08.722Z,3.03
2023-10-15T00:57:43.030Z,5.15
2023-10-15T01:01:35.259Z,3.67
2023-10-15T01:04:37.463Z,3.65
2023-10-15T01:07:47.600Z,5.28
2023-10-15T01:10:54.786Z,6.03
2023-10-15T01:13:57.047Z,4.57
2023-10-15T01:17:01.975Z,2.83
2023-10-15T01:20:39.167Z,3.80
2023-10-15T01:23:43.594Z,2.78
2023-10-15T01:26:52.704Z,2.47
2023-10-15T01:29:56.341Z,3.22
2023-10-15T01:33:07.334Z,2.17
2023-10-15T01:36:09.549Z,2.17
2023-10-15T01:39:11.656Z,2.83
2023-10-15T01:42:33.098Z,5.83
2023-10-15T01:45:39.699Z,2.25
2023-10-15T01:48:42.447Z,2.90
2023-10-15T01:51:46.094Z,2.58
2023-10-15T01:54:48.167Z,2.55
2023-10-15T01:57:50.358Z,3.63
2023-10-15T02:00:52.946Z,2.80
2023-10-15T02:03:55.193Z,3.25
2023-10-15T02:06:58.189Z,2.75
2023-10-15T02:10:01.365Z,5.10
2023-10-15T02:13:06.121Z,4.57
2023-10-15T02:16:16.707Z,4.78
2023-10-15T02:19:29.976Z,5.57
2023-10-15T02:22:32.362Z,3.35
2023-10-15T02:25:37.884Z,2.60
2023-10-15T02:28:41.116Z,3.50
2023-10-15T02:31:48.051Z,4.72
2023-10-15T02:34:53.104Z,5.93
2023-10-15T02:37:59.411Z,4.47
2023-10-15T02:41:10.983Z,3.17
2023-10-15T02:44:17.125Z,3.70
2023-10-15T02:47:30.063Z,3.42
2023-10-15T02:50:34.601Z,3.95
2023-10-15T02:53:51.843Z,3.38
2023-10-15T02:56:57.752Z,4.28
2023-10-15T03:00:12.670Z,7.47
2023-10-15T03:03:17.594Z,4.72
2023-10-15T03:06:20.814Z,6.35
2023-10-15T03:09:27.364Z,5.35
2023-10-15T03:12:35.049Z,6.03
2023-10-15T03:15:47.298Z,4.33
2023-10-15T03:18:49.620Z,4.55
2023-10-15T03:21:58.226Z,6.72
2023-10-15T03:25:00.731Z,5.47
2023-10-15T03:28:02.961Z,6.68
2023-10-15T03:31:05.064Z,6.47
2023-10-15T03:34:07.133Z,6.30
2023-10-15T03:37:18.260Z,8.27
2023-10-15T03:40:33.677Z,8.23
2023-10-15T03:43:37.295Z,8.35
2023-10-15T03:46:39.530Z,4.37
2023-10-15T03:49:42.161Z,6.53
2023-10-15T03:52:45.753Z,5.10
2023-10-15T03:55:50.985Z,6.65
2023-10-15T03:58:53.262Z,5.53
2023-10-15T04:01:58.047Z,6.90
2023-10-15T04:05:10.123Z,6.82
2023-10-15T04:08:19.871Z,7.60
2023-10-15T04:11:30.407Z,7.70
2023-10-15T04:14:34.003Z,5.03
2023-10-15T04:17:36.131Z,5.67
2023-10-15T04:20:43.264Z,6.50
2023-10-15T04:23:50.668Z,5.88
2023-10-15T04:26:52.682Z,5.70
2023-10-15T04:29:56.709Z,7.55
2023-10-15T04:32:58.905Z,6.00
2023-10-15T04:36:02.607Z,7.20
2023-10-15T04:39:13.694Z,5.70
2023-10-15T04:42:30.880Z,8.90
2023-10-15T04:45:35.678Z,9.38
2023-10-15T04:48:40.632Z,6.50
2023-10-15T04:51:45.395Z,6.43
2023-10-15T04:54:47.410Z,7.07
2023-10-15T04:57:49.397Z,11.60
2023-10-15T05:00:51.478Z,5.10
2023-10-15T05:03:53.671Z,8.90
2023-10-15T05:06:55.742Z,9.30
2023-10-15T05:09:58.984Z,7.10
2023-10-15T05:13:01.008Z,15.45
2023-10-15T05:16:04.144Z,9.25
2023-10-15T05:19:08.017Z,5.67
2023-10-15T05:22:10.768Z,6.38
2023-10-15T05:25:18.904Z,7.68
2023-10-15T05:28:21.064Z,5.00
2023-10-15T05:31:23.099Z,8.02
2023-10-15T05:34:25.424Z,8.83
2023-10-15T05:37:27.650Z,8.32
2023-10-15T05:40:31.017Z,8.68
2023-10-15T05:43:33.180Z,9.73
2023-10-15T05:46:35.500Z,9.35
2023-10-15T05:49:38.173Z,7.43
2023-10-15T05:52:41.106Z,6.32
2023-10-15T05:55:43.303Z,9.07
2023-10-15T05:58:45.542Z,7.35
2023-10-15T06:01:47.628Z,8.40
2023-10-15T06:04:49.927Z,5.00
2023-10-15T06:07:52.067Z,7.75
2023-10-15T06:10:54.152Z,10.60
2023-10-15T06:13:57.752Z,7.38
2023-10-15T06:17:00.588Z,10.75
2023-10-15T06:20:23.920Z,8.77
2023-10-15T06:23:25.965Z,7.78
2023-10-15T06:26:28.127Z,8.95
2023-10-15T06:29:30.199Z,6.85
2023-10-15T06:32:32.871Z,7.93
2023-10-15T06:35:34.950Z,8.83
2023-10-15T06:38:37.072Z,7.15
2023-10-15T06:41:39.066Z,6.53
2023-10-15T06:44:41.155Z,7.28
2023-10-15T06:47:43.296Z,9.02
2023-10-15T06:50:45.706Z,8.57
2023-10-15T06:53:48.766Z,8.23
2023-10-15T06:56:51.612Z,12.05
2023-10-15T06:59:55.745Z,6.18
2023-10-15T07:02:59.326Z,6.70
2023-10-15T07:06:01.486Z,8.37
2023-10-15T07:09:04.149Z,11.10
2023-10-15T07:12:06.468Z,9.43
2023-10-15T07:15:10.401Z,8.43
2023-10-15T07:18:12.856Z,6.95
2023-10-15T07:21:15.045Z,6.83
2023-10-15T07:24:17.517Z,9.88
2023-10-15T07:27:20.880Z,9.77
2023-10-15T07:30:23.137Z,5.75
2023-10-15T07:33:26.713Z,9.55
2023-10-15T07:36:29.600Z,7.73
2023-10-15T07:39:32.942Z,9.07
2023-10-15T07:42:35.038Z,9.23
2023-10-15T07:45:39.270Z,6.30
2023-10-15T07:48:41.992Z,6.85
2023-10-15T07:51:43.992Z,5.33
2023-10-15T07:54:46.039Z,7.55
2023-10-15T07:57:48.096Z,7.72
2023-10-15T08:01:05.259Z,6.95
2023-10-15T08:04:14.736Z,7.90
2023-10-15T08:07:17.184Z,10.63
2023-10-15T08:10:21.932Z,8.20
2023-10-15T08:13:24.019Z,8.35
2023-10-15T08:16:26.105Z,7.35
2023-10-15T08:19:28.186Z,5.65
2023-10-15T08:22:30.186Z,7.13
2023-10-15T08:25:35.815Z,7.55
2023-10-15T08:28:39.050Z,10.10
2023-10-15T08:31:41.304Z,5.57
2023-10-15T08:34:46.421Z,7.65
2023-10-15T08:37:48.676Z,9.83
2023-10-15T08:40:51.790Z,8.43
2023-10-15T08:43:54.146Z,11.65
2023-10-15T08:46:57.935Z,7.80
2023-10-15T08:50:01.039Z,9.20
2023-10-15T08:53:05.678Z,8.37
2023-10-15T08:56:08.706Z,7.57
2023-10-15T08:59:11.639Z,8.20
2023-10-15T09:02:16.804Z,10.55
2023-10-15T09:05:19.032Z,8.10
2023-10-15T09:08:22.028Z,7.17
2023-10-15T09:11:24.210Z,8.32
2023-10-15T09:14:41.898Z,7.90
2023-10-15T09:18:00.334Z,6.70
2023-10-15T09:21:05.074Z,6.72
2023-10-15T09:24:07.514Z,6.57
2023-10-15T09:27:09.581Z,9.38
2023-10-15T09:30:20.002Z,7.57
2023-10-15T09:33:29.319Z,8.25
2023-10-15T09:36:35.938Z,8.25
2023-10-15T09:39:39.901Z,10.97
2023-10-15T09:42:41.980Z,10.85
2023-10-15T09:45:44.294Z,10.45
2023-10-15T09:48:46.702Z,7.78
2023-10-15T09:51:49.418Z,8.20
2023-10-15T09:54:52.531Z,7.40
2023-10-15T09:57:59.065Z,12.70
2023-10-15T10:01:29.916Z,8.15
2023-10-15T10:04:43.439Z,6.75
2023-10-15T10:07:59.469Z,10.70
2023-10-15T10:11:16.888Z,8.27
2023-10-15T10:14:19.059Z,9.50
2023-10-15T10:17:22.033Z,7.43
2023-10-15T10:20:34.081Z,8.60
2023-10-15T10:23:48.512Z,9.30
2023-10-15T10:26:57.990Z,7.80
2023-10-15T10:30:19.988Z,7.63
2023-10-15T10:33:50.367Z,6.07
2023-10-15T10:36:56.516Z,10.30
2023-10-15T10:40:00.685Z,7.32
2023-10-15T10:43:05.705Z,7.40
2023-10-15T10:46:08.179Z,5.60
2023-10-15T10:49:19.901Z,5.05
2023-10-15T10:52:28.311Z,7.00
2023-10-15T10:55:34.153Z,6.40
2023-10-15T10:58:39.288Z,7.53
2023-10-15T11:01:42.266Z,4.72
2023-10-15T11:04:44.833Z,6.35
2023-10-15T11:07:49.034Z,4.55
2023-10-15T11:10:51.545Z,4.75
2023-10-15T11:13:56.246Z,7.83
2023-10-15T11:16:58.443Z,7.43
2023-10-15T11:20:00.611Z,6.55
2023-10-15T11:23:07.437Z,6.20
2023-10-15T11:26:10.174Z,5.22
2023-10-15T11:29:15.964Z,6.33
2023-10-15T11:32:18.430Z,7.60
2023-10-15T11:35:20.817Z,5.60
2023-10-15T11:38:32.778Z,8.02
2023-10-15T11:41:35.908Z,6.05
2023-10-15T11:44:44.092Z,6.53
2023-10-15T11:47:46.918Z,5.85
2023-10-15T11:50:49.529Z,6.43
2023-10-15T11:53:51.573Z,6.07
2023-10-15T11:56:55.677Z,6.65
2023-10-15T11:59:59.284Z,8.60
2023-10-15T12:03:02.378Z,5.97
2023-10-15T12:06:05.338Z,4.28
2023-10-15T12:09:13.654Z,5.70
2023-10-15T12:12:15.947Z,7.25
2023-10-15T12:15:18.042Z,6.63
2023-10-15T12:18:20.091Z,10.02
2023-10-15T12:21:22.137Z,4.88
2023-10-15T12:24:24.391Z,7.55
2023-10-15T12:27:29.459Z,8.77
2023-10-15T12:30:31.701Z,9.17
2023-10-15T12:33:35.243Z,5.20
2023-10-15T12:36:37.857Z,6.47
2023-10-15T12:39:42.386Z,4.95
2023-10-15T12:42:44.738Z,7.93
2023-10-15T12:45:47.462Z,4.83
2023-10-15T12:48:49.503Z,8.15
2023-10-15T12:51:51.550Z,5.13
2023-10-15T12:54:55.124Z,7.90
2023-10-15T12:57:57.541Z,5.55
2023-10-15T13:00:59.638Z,4.27
2023-10-15T13:04:01.705Z,7.25
2023-10-15T13:07:04.968Z,5.13
2023-10-15T13:10:09.389Z,6.93
2023-10-15T13:13:11.432Z,8.75
2023-10-15T13:16:13.491Z,9.70
2023-10-15T13:19:15.534Z,5.95
2023-10-15T13:22:17.671Z,5.78
2023-10-15T13:25:20.002Z,5.10
2023-10-15T13:28:22.476Z,5.72
2023-10-15T13:31:24.602Z,5.30
2023-10-15T13:34:26.892Z,3.40
2023-10-15T13:37:29.336Z,6.85
2023-10-15T13:40:33.289Z,5.60
2023-10-15T13:43:36.962Z,8.02
2023-10-15T13:46:42.733Z,9.23
2023-10-15T13:49:45.387Z,7.80
2023-10-15T13:52:48.329Z,9.15
2023-10-15T13:55:50.729Z,5.85
2023-10-15T13:58:52.797Z,7.90
2023-10-15T14:01:57.455Z,6.63
2023-10-15T14:05:00.329Z,4.68
2023-10-15T14:08:02.560Z,6.15
2023-10-15T14:11:04.934Z,8.00
2023-10-15T14:14:07.105Z,10.88
2023-10-15T14:17:09.956Z,8.37
2023-10-15T14:20:16.084Z,7.20
2023-10-15T14:23:19.385Z,6.00
2023-10-15T14:26:22.553Z,9.30
2023-10-15T14:29:25.231Z,7.10
2023-10-15T14:32:31.889Z,7.37
2023-10-15T14:35:34.975Z,11.63
2023-10-15T14:38:37.041Z,8.50
2023-10-15T14:41:39.191Z,10.07
2023-10-15T14:44:41.321Z,8.02
2023-10-15T14:47:43.905Z,6.50
2023-10-15T14:50:46.129Z,4.63
2023-10-15T14:53:48.212Z,4.82
2023-10-15T14:56:50.315Z,6.18
2023-10-15T14:59:52.637Z,8.23
2023-10-15T15:02:55.161Z,5.03
2023-10-15T15:05:57.245Z,5.95
2023-10-15T15:08:59.268Z,8.30
2023-10-15T15:12:01.363Z,4.85
2023-10-15T15:15:03.631Z,5.28
2023-10-15T15:18:06.834Z,4.10
2023-10-15T15:21:09.015Z,5.53
2023-10-15T15:24:11.140Z,6.10
2023-10-15T15:27:13.255Z,6.50
2023-10-15T15:30:16.764Z,7.45
2023-10-15T15:33:19.773Z,7.03
2023-10-15T15:36:21.853Z,7.28
2023-10-15T15:39:23.907Z,7.05
2023-10-15T15:42:25.953Z,6.88
2023-10-15T15:45:28.028Z,8.70
2023-10-15T15:48:30.044Z,8.27
2023-10-15T15:51:32.463Z,5.32
2023-10-15T15:54:34.562Z,7.32
2023-10-15T15:57:36.608Z,9.48
2023-10-15T16:00:39.471Z,6.78
2023-10-15T16:06:46.402Z,6.47
2023-10-15T16:09:48.428Z,5.43
2023-10-15T16:12:50.487Z,4.32
2023-10-15T16:15:52.891Z,8.38
2023-10-15T16:18:55.043Z,8.53
2023-10-15T16:21:57.271Z,5.63
2023-10-15T16:25:06.782Z,6.55
2023-10-15T16:28:10.780Z,6.53
2023-10-15T16:31:12.872Z,6.55
2023-10-15T16:34:15.048Z,7.40
2023-10-15T16:37:17.112Z,6.40
2023-10-15T16:40:19.164Z,7.55
2023-10-15T16:43:21.210Z,6.10
2023-10-15T16:46:23.379Z,5.95
2023-10-15T16:49:26.196Z,6.60
2023-10-15T16:52:28.320Z,7.07
2023-10-15T16:55:30.378Z,5.60
2023-10-15T16:58:37.230Z,7.20
2023-10-15T17:01:39.817Z,7.20
2023-10-15T17:04:41.954Z,7.17
2023-10-15T17:07:47.130Z,5.47
2023-10-15T17:10:52.432Z,5.60
2023-10-15T17:13:54.561Z,10.18
2023-10-15T17:16:58.083Z,7.20
2023-10-15T17:20:00.178Z,7.93
2023-10-15T17:23:02.267Z,5.78
2023-10-15T17:26:04.451Z,7.80
2023-10-15T17:29:08.070Z,4.90
2023-10-15T17:32:10.792Z,8.63
2023-10-15T17:35:13.170Z,9.73
2023-10-15T17:38:16.731Z,8.07
2023-10-15T17:41:19.032Z,14.85
2023-10-15T17:44:21.201Z,12.57
2023-10-15T17:47:23.342Z,11.68
2023-10-15T17:50:28.188Z,12.27
2023-10-15T17:53:30.241Z,12.73
2023-10-15T17:56:32.602Z,8.25
2023-10-15T17:59:36.863Z,7.38
2023-10-15T18:02:39.294Z,13.02
2023-10-15T18:05:41.457Z,10.07
2023-10-15T18:08:46.367Z,14.88
2023-10-15T18:11:48.472Z,6.68
2023-10-15T18:14:50.757Z,7.45
2023-10-15T18:17:52.803Z,5.45
2023-10-15T18:20:54.980Z,6.23
2023-10-15T18:23:57.099Z,13.98
2023-10-15T18:27:01.254Z,16.35
2023-10-15T18:30:03.580Z,7.50
2023-10-15T18:33:06.722Z,10.63
2023-10-15T18:36:09.114Z,7.60
2023-10-15T18:39:12.074Z,7.72
2023-10-15T18:42:15.794Z,7.97
2023-10-15T18:45:17.995Z,8.55
2023-10-15T18:48:20.138Z,7.40
2023-10-15T18:51:37.228Z,8.10
2023-10-15T18:54:40.692Z,6.63
2023-10-15T18:57:42.937Z,10.15
2023-10-15T19:00:45.078Z,7.10
2023-10-15T19:03:47.663Z,23.98
2023-10-15T19:06:50.329Z,17.57
2023-10-15T19:09:52.824Z,18.08
2023-10-15T19:12:57.901Z,13.57
2023-10-15T19:16:04.041Z,10.48
2023-10-15T19:19:06.174Z,19.58
2023-10-15T19:22:09.060Z,12.07
2023-10-15T19:25:12.078Z,11.43
2023-10-15T19:28:14.717Z,8.48
2023-10-15T19:31:16.914Z,16.92
2023-10-15T19:34:18.951Z,13.32
2023-10-15T19:37:21.034Z,17.30
2023-10-15T19:40:23.183Z,16.02
2023-10-15T19:43:29.795Z,15.82
2023-10-15T19:46:32.039Z,16.65
2023-10-15T19:49:34.267Z,14.90
2023-10-15T19:52:36.350Z,16.87
2023-10-15T19:55:38.402Z,14.70
2023-10-15T19:58:42.333Z,17.48
2023-10-15T20:01:44.390Z,16.70
2023-10-15T20:04:46.677Z,10.02
2023-10-15T20:07:48.822Z,9.97
2023-10-15T20:10:50.860Z,6.35
2023-10-15T20:13:53.333Z,9.18
2023-10-15T20:16:55.329Z,9.15
2023-10-15T20:19:57.370Z,9.98
2023-10-15T20:22:59.608Z,5.87
2023-10-15T20:26:01.620Z,9.07
2023-10-15T20:29:04.158Z,7.20
2023-10-15T20:32:06.531Z,7.00
2023-10-15T20:35:08.616Z,7.45
2023-10-15T20:38:11.375Z,12.33
2023-10-15T20:41:15.216Z,12.18
2023-10-15T20:44:17.412Z,13.10
2023-10-15T20:47:25.125Z,14.07
2023-10-15T20:50:27.730Z,11.23
2023-10-15T20:53:30.900Z,12.30
2023-10-15T20:56:32.946Z,9.45
2023-10-15T20:59:35.070Z,12.07
2023-10-15T21:02:37.400Z,8.35
2023-10-15T21:05:42.139Z,8.77
2023-10-15T21:08:45.786Z,8.63
2023-10-15T21:11:47.778Z,9.13
2023-10-15T21:14:49.834Z,10.20
2023-10-15T21:17:51.922Z,8.15
2023-10-15T21:20:53.956Z,10.40
2023-10-15T21:23:56.005Z,8.10
2023-10-15T21:26:58.006Z,11.25
2023-10-15T21:30:00.076Z,17.25
2023-10-15T21:33:04.841Z,9.55
2023-10-15T21:36:07.037Z,12.98
2023-10-15T21:39:09.158Z,12.70
2023-10-15T21:42:12.169Z,9.43
2023-10-15T21:45:14.305Z,12.57
2023-10-15T21:48:16.374Z,10.43
2023-10-15T21:51:18.527Z,9.70
2023-10-15T21:54:20.704Z,12.27
2023-10-15T21:57:22.908Z,9.50
2023-10-15T22:00:31.035Z,8.63
2023-10-15T22:03:33.318Z,7.65
2023-10-15T22:06:36.802Z,11.13
2023-10-15T22:09:39.339Z,9.90
2023-10-15T22:12:41.476Z,7.90
2023-10-15T22:15:46.462Z,11.88
2023-10-15T22:18:51.453Z,10.25
2023-10-15T22:21:55.080Z,8.30
2023-10-15T22:24:59.119Z,7.27
2023-10-15T22:28:03.721Z,9.70
2023-10-15T22:31:08.793Z,8.23
2023-10-15T22:34:10.934Z,6.82
2023-10-15T22:37:13.815Z,8.95
2023-10-15T22:40:18.511Z,8.10
2023-10-15T22:43:21.776Z,9.50
2023-10-15T22:46:23.826Z,9.82
2023-10-15T22:49:26.116Z,8.70
2023-10-15T22:52:28.120Z,9.63
2023-10-15T22:55:30.109Z,11.23
2023-10-15T22:58:32.512Z,7.97
2023-10-15T23:01:34.660Z,6.63
2023-10-15T23:04:36.880Z,8.70
2023-10-15T23:07:39.061Z,6.28
2023-10-15T23:10:41.411Z,8.17
2023-10-15T23:13:43.560Z,8.00
2023-10-15T23:16:46.661Z,8.77
2023-10-15T23:19:50.506Z,6.22
2023-10-15T23:22:55.538Z,6.32
2023-10-15T23:26:03.213Z,5.63
2023-10-15T23:29:05.408Z,8.88
2023-10-15T23:32:10.497Z,6.35
2023-10-15T23:35:12.735Z,7.63
2023-10-15T23:38:14.747Z,7.20
2023-10-15T23:41:16.828Z,8.90
2023-10-15T23:44:22.847Z,9.35
2023-10-15T23:47:25.145Z,7.38
2023-10-15T23:50:32.347Z,9.05
2023-10-15T23:53:37.186Z,11.80
2023-10-15T23:56:39.251Z,7.43
2023-10-15T23:59:42.416Z,5.97
